createdAt,value
2023-04-20T00:02:27.744Z,95209.88
2023-04-20T00:04:56.444Z,95201.03
2023-04-20T00:07:27.616Z,95201.59
2023-04-20T00:09:55.997Z,95192.13
2023-04-20T00:12:25.739Z,95190.13
2023-04-20T00:14:54.448Z,95194.94
2023-04-20T00:17:23.952Z,95178.69
2023-04-20T00:19:52.649Z,95174.25
2023-04-20T00:22:20.797Z,95175.69
2023-04-20T00:24:48.928Z,95177.31
2023-04-20T00:27:17.557Z,95174.09
2023-04-20T00:29:48.155Z,95170.28
2023-04-20T00:32:16.509Z,95164.44
2023-04-20T00:34:45.402Z,95160.00
2023-04-20T00:37:13.579Z,95148.41
2023-04-20T00:39:41.716Z,95150.38
2023-04-20T00:42:10.768Z,95139.13
2023-04-20T00:44:38.814Z,95135.09
2023-04-20T00:47:11.123Z,95137.09
2023-04-20T00:49:40.285Z,95128.00
2023-04-20T00:52:09.992Z,95124.38
2023-04-20T00:54:38.280Z,95130.22
2023-04-20T00:57:06.733Z,95123.63
2023-04-20T00:59:36.402Z,95116.59
2023-04-20T01:02:05.445Z,95113.63
2023-04-20T01:04:37.586Z,95117.78
2023-04-20T01:07:06.013Z,95105.69
2023-04-20T01:09:34.390Z,95096.78
2023-04-20T01:12:02.992Z,95100.88
2023-04-20T01:14:31.177Z,95105.53
2023-04-20T01:16:59.726Z,95097.47
2023-04-20T01:19:27.996Z,95102.69
2023-04-20T01:21:57.380Z,95110.53
2023-04-20T01:24:27.732Z,95098.84
2023-04-20T01:26:56.407Z,95096.66
2023-04-20T01:29:25.856Z,95096.66
2023-04-20T01:31:54.257Z,95093.84
2023-04-20T01:34:22.601Z,95094.91
2023-04-20T01:36:51.256Z,95089.72
2023-04-20T01:39:20.146Z,95094.41
2023-04-20T01:41:50.019Z,95082.97
2023-04-20T01:44:19.048Z,95081.16
2023-04-20T01:46:48.430Z,95079.56
2023-04-20T01:49:17.297Z,95082.59
2023-04-20T01:51:46.490Z,95082.97
2023-04-20T01:54:14.759Z,95079.22
2023-04-20T01:56:43.304Z,95076.19
2023-04-20T01:59:13.556Z,95067.13
2023-04-20T02:01:42.104Z,95057.53
2023-04-20T02:04:10.932Z,95052.81
2023-04-20T02:06:41.518Z,95054.25
2023-04-20T02:09:11.338Z,95051.91
2023-04-20T02:11:39.818Z,95045.69
2023-04-20T02:14:09.588Z,95052.53
2023-04-20T02:16:39.570Z,95062.53
2023-04-20T02:19:07.799Z,95055.31
2023-04-20T02:21:36.179Z,95050.72
2023-04-20T02:24:04.698Z,95055.72
2023-04-20T02:26:32.834Z,95058.34
2023-04-20T02:29:01.330Z,95061.97
2023-04-20T02:31:29.585Z,95060.78
2023-04-20T02:33:59.146Z,95058.19
2023-04-20T02:36:28.936Z,95054.78
2023-04-20T02:38:57.395Z,95054.41
2023-04-20T02:41:25.891Z,95059.41
2023-04-20T02:43:54.904Z,95052.19
2023-04-20T02:46:22.952Z,95052.25
2023-04-20T02:48:51.335Z,95047.03
2023-04-20T02:51:21.596Z,95037.22
2023-04-20T02:53:52.797Z,95035.22
2023-04-20T02:56:28.395Z,95034.44
2023-04-20T02:59:00.807Z,95031.22
2023-04-20T03:01:58.672Z,95026.66
2023-04-20T03:04:27.959Z,95019.66
2023-04-20T03:07:04.902Z,95023.28
2023-04-20T03:09:36.136Z,95024.06
2023-04-20T03:12:14.494Z,95022.88
2023-04-20T03:14:54.545Z,95019.69
2023-04-20T03:17:29.284Z,95028.88
2023-04-20T03:19:57.965Z,95022.47
2023-04-20T03:22:30.598Z,95011.41
2023-04-20T03:25:02.008Z,95017.84
2023-04-20T03:27:47.180Z,95017.25
2023-04-20T03:30:17.690Z,95018.84
2023-04-20T03:32:49.252Z,95012.03
2023-04-20T03:35:17.884Z,95018.44
2023-04-20T03:37:47.832Z,95011.00
2023-04-20T03:40:16.391Z,95004.34
2023-04-20T03:42:44.397Z,95010.81
2023-04-20T03:45:13.470Z,95010.19
2023-04-20T03:47:41.704Z,95011.78
2023-04-20T03:50:10.617Z,95013.53
2023-04-20T03:52:40.183Z,95007.09
2023-04-20T03:55:10.988Z,94998.50
2023-04-20T03:57:44.913Z,94995.28
2023-04-20T04:00:14.387Z,94984.19
2023-04-20T04:02:48.351Z,94984.78
2023-04-20T04:05:24.201Z,94986.59
2023-04-20T04:07:52.873Z,94987.41
2023-04-20T04:10:22.535Z,94992.22
2023-04-20T04:12:51.057Z,94983.81
2023-04-20T04:15:20.406Z,94983.44
2023-04-20T04:17:55.163Z,94980.25
2023-04-20T04:20:24.019Z,94981.00
2023-04-20T04:22:54.913Z,94981.81
2023-04-20T04:25:46.030Z,94987.78
2023-04-20T04:28:14.971Z,94980.16
2023-04-20T04:30:55.657Z,94976.47
2023-04-20T04:33:25.783Z,94965.56
2023-04-20T04:35:55.664Z,94966.88
2023-04-20T04:38:24.451Z,94970.38
2023-04-20T04:40:54.917Z,94961.75
2023-04-20T04:43:24.336Z,94970.41
2023-04-20T04:46:08.761Z,94976.38
2023-04-20T04:48:37.978Z,94983.03
2023-04-20T04:51:06.870Z,94976.22
2023-04-20T04:53:35.466Z,94969.34
2023-04-20T04:56:07.084Z,94969.72
2023-04-20T04:58:35.463Z,94969.19
2023-04-20T05:01:03.643Z,94976.78
2023-04-20T05:03:31.886Z,94979.75
2023-04-20T05:05:59.978Z,94966.50
2023-04-20T05:08:29.166Z,94965.69
2023-04-20T05:10:58.475Z,94967.88
2023-04-20T05:13:28.147Z,94980.50
2023-04-20T05:15:56.608Z,94977.50
2023-04-20T05:18:24.741Z,94972.06
2023-04-20T05:20:53.377Z,94975.88
2023-04-20T05:23:21.862Z,94974.25
2023-04-20T05:25:49.833Z,94973.66
2023-04-20T05:28:18.969Z,94965.41
2023-04-20T05:30:48.808Z,94965.41
2023-04-20T05:33:17.792Z,94971.25
2023-04-20T05:35:46.347Z,94967.69
2023-04-20T05:38:14.941Z,94966.69
2023-04-20T05:40:43.132Z,94963.44
2023-04-20T05:43:11.906Z,94964.63
2023-04-20T05:45:40.197Z,94965.41
2023-04-20T05:48:10.932Z,94969.41
2023-04-20T05:50:39.476Z,94968.84
2023-04-20T05:53:08.059Z,94967.00
2023-04-20T05:55:36.292Z,94966.59
2023-04-20T05:58:04.743Z,94963.53
2023-04-20T06:00:32.858Z,94964.91
2023-04-20T06:03:01.432Z,94957.47
2023-04-20T06:05:31.433Z,94958.06
2023-04-20T06:07:59.648Z,94960.53
2023-04-20T06:10:32.253Z,94956.50
2023-04-20T06:13:00.784Z,94954.09
2023-04-20T06:15:29.754Z,94954.94
2023-04-20T06:17:58.267Z,94953.13
2023-04-20T06:20:26.780Z,94943.06
2023-04-20T06:22:56.426Z,94944.25
2023-04-20T06:25:25.880Z,94939.44
2023-04-20T06:27:54.122Z,94933.78
2023-04-20T06:30:22.168Z,94933.78
2023-04-20T06:32:50.711Z,94931.97
2023-04-20T06:35:18.912Z,94928.00
2023-04-20T06:37:47.039Z,94929.81
2023-04-20T06:40:16.763Z,94929.88
2023-04-20T06:42:45.232Z,94925.59
2023-04-20T06:45:13.604Z,94931.53
2023-04-20T06:47:42.180Z,94933.66
2023-04-20T06:50:11.597Z,94938.84
2023-04-20T06:52:41.222Z,94930.19
2023-04-20T06:55:10.466Z,94934.16
2023-04-20T06:57:43.730Z,94930.97
2023-04-20T07:00:13.527Z,94943.66
2023-04-20T07:02:47.137Z,94936.50
2023-04-20T07:05:16.715Z,94936.16
2023-04-20T07:07:45.509Z,94937.88
2023-04-20T07:10:15.593Z,94921.81
2023-04-20T07:12:46.770Z,94936.44
2023-04-20T07:15:15.583Z,94948.47
2023-04-20T07:17:44.184Z,94956.53
2023-04-20T07:20:13.238Z,94957.00
2023-04-20T07:22:43.306Z,94953.72
2023-04-20T07:25:11.782Z,94951.31
2023-04-20T07:27:42.687Z,94961.38
2023-04-20T07:30:14.404Z,94958.09
2023-04-20T07:32:42.847Z,94963.03
2023-04-20T07:35:12.100Z,94961.09
2023-04-20T07:37:40.717Z,94956.25
2023-04-20T07:40:11.339Z,94963.03
2023-04-20T07:42:39.855Z,94956.97
2023-04-20T07:45:09.538Z,94954.63
2023-04-20T07:47:40.430Z,94965.00
2023-04-20T07:50:09.643Z,94968.66
2023-04-20T07:52:38.103Z,94955.53
2023-04-20T07:55:08.259Z,94955.53
2023-04-20T07:57:36.831Z,94952.94
2023-04-20T08:00:07.436Z,94957.72
2023-04-20T08:02:42.588Z,94948.28
2023-04-20T08:05:11.684Z,94938.06
2023-04-20T08:07:42.046Z,94940.41
2023-04-20T08:10:11.420Z,94941.53
2023-04-20T08:12:40.532Z,94940.66
2023-04-20T08:15:10.415Z,94954.66
2023-04-20T08:17:38.918Z,94953.31
2023-04-20T08:20:10.761Z,94949.06
2023-04-20T08:22:39.804Z,94960.88
2023-04-20T08:25:08.674Z,94951.47
2023-04-20T08:27:36.730Z,94963.50
2023-04-20T08:30:07.010Z,94954.66
2023-04-20T08:32:36.045Z,94958.66
2023-04-20T08:35:05.266Z,94962.28
2023-04-20T08:37:36.166Z,94957.31
2023-04-20T08:40:05.714Z,94949.06
2023-04-20T08:42:34.412Z,94951.66
2023-04-20T08:45:02.811Z,94965.00
2023-04-20T08:47:34.911Z,94959.13
2023-04-20T08:50:05.834Z,94968.31
2023-04-20T08:52:38.788Z,94974.09
2023-04-20T08:55:08.989Z,94969.09
2023-04-20T08:57:37.205Z,94969.50
2023-04-20T09:00:08.336Z,94963.47
2023-04-20T09:02:36.940Z,94959.91
2023-04-20T09:05:07.841Z,94948.22
2023-04-20T09:07:38.010Z,94951.84
2023-04-20T09:10:07.204Z,94945.59
2023-04-20T09:12:42.893Z,94942.19
2023-04-20T09:15:12.441Z,94936.53
2023-04-20T09:17:42.332Z,94945.69
2023-04-20T09:20:12.130Z,94950.31
2023-04-20T09:22:42.805Z,94954.22
2023-04-20T09:25:16.088Z,94941.00
2023-04-20T09:27:44.168Z,94941.41
2023-04-20T09:30:13.333Z,94927.22
2023-04-20T09:32:42.329Z,94933.88
2023-04-20T09:35:12.100Z,94927.91
2023-04-20T09:37:50.549Z,94925.66
2023-04-20T09:40:22.402Z,94919.53
2023-04-20T09:42:52.569Z,94914.41
2023-04-20T09:45:22.076Z,94919.03
2023-04-20T09:47:52.526Z,94920.19
2023-04-20T09:50:29.116Z,94910.88
2023-04-20T09:53:05.611Z,94905.41
2023-04-20T09:55:34.797Z,94905.59
2023-04-20T09:58:05.286Z,94903.38
2023-04-20T10:00:33.533Z,94900.34
2023-04-20T10:03:01.731Z,94901.75
2023-04-20T10:05:39.481Z,94913.06
2023-04-20T10:08:09.296Z,94908.03
2023-04-20T10:10:49.146Z,94901.88
2023-04-20T10:13:19.542Z,94897.56
2023-04-20T10:15:48.351Z,94900.56
2023-04-20T10:18:20.922Z,94899.59
2023-04-20T10:20:51.391Z,94905.25
2023-04-20T10:23:21.536Z,94907.63
2023-04-20T10:26:01.299Z,94887.78
2023-04-20T10:28:40.788Z,94892.50
2023-04-20T10:31:13.550Z,94893.56
2023-04-20T10:33:52.337Z,94892.47
2023-04-20T10:36:30.368Z,94894.03
2023-04-20T10:39:01.495Z,94901.31
2023-04-20T10:41:30.437Z,94893.88
2023-04-20T10:44:08.758Z,94888.19
2023-04-20T10:46:37.173Z,94906.56
2023-04-20T10:49:05.783Z,94912.25
2023-04-20T10:51:33.883Z,94908.16
2023-04-20T10:54:06.322Z,94899.34
2023-04-20T10:56:39.314Z,94893.25
2023-04-20T10:59:09.586Z,94885.25
2023-04-20T11:01:39.220Z,94874.31
2023-04-20T11:04:07.681Z,94870.56
2023-04-20T11:06:36.822Z,94857.75
2023-04-20T11:09:18.647Z,94877.25
2023-04-20T11:11:47.620Z,94874.16
2023-04-20T11:14:15.841Z,94872.53
2023-04-20T11:16:54.232Z,94871.91
2023-04-20T11:19:26.874Z,94863.91
2023-04-20T11:21:55.153Z,94868.59
2023-04-20T11:24:26.053Z,94871.34
2023-04-20T11:26:56.303Z,94866.41
2023-04-20T11:29:33.189Z,94858.47
2023-04-20T11:32:05.297Z,94852.88
2023-04-20T11:34:34.599Z,94844.91
2023-04-20T11:37:05.506Z,94849.13
2023-04-20T11:39:35.501Z,94842.88
2023-04-20T11:42:07.127Z,94837.94
2023-04-20T11:44:37.014Z,94839.38
2023-04-20T11:47:06.174Z,94841.44
2023-04-20T11:49:34.412Z,94834.88
2023-04-20T11:52:02.945Z,94832.50
2023-04-20T11:54:34.017Z,94839.47
2023-04-20T11:57:04.650Z,94832.78
2023-04-20T11:59:33.122Z,94833.66
2023-04-20T12:02:04.464Z,94836.63
2023-04-20T12:04:34.799Z,94847.78
2023-04-20T12:07:03.956Z,94849.22
2023-04-20T12:09:36.271Z,94849.41
2023-04-20T12:12:06.828Z,94848.16
2023-04-20T12:14:34.844Z,94846.06
2023-04-20T12:17:03.935Z,94846.81
2023-04-20T12:19:33.002Z,94843.97
2023-04-20T12:22:01.157Z,94838.00
2023-04-20T12:24:29.631Z,94836.34
2023-04-20T12:26:59.583Z,94835.81
2023-04-20T12:29:31.410Z,94833.34
2023-04-20T12:32:00.497Z,94833.13
2023-04-20T12:34:30.701Z,94834.53
2023-04-20T12:36:59.162Z,94829.31
2023-04-20T12:39:27.584Z,94819.44
2023-04-20T12:41:57.283Z,94829.41
2023-04-20T12:44:25.706Z,94819.41
2023-04-20T12:46:56.972Z,94813.72
2023-04-20T12:49:25.089Z,94816.09
2023-04-20T12:51:53.337Z,94818.19
2023-04-20T12:54:21.612Z,94820.59
2023-04-20T12:56:49.798Z,94819.94
2023-04-20T12:59:17.921Z,94821.66
2023-04-20T13:01:46.234Z,94814.22
2023-04-20T13:04:16.548Z,94811.56
2023-04-20T13:06:45.238Z,94814.94
2023-04-20T13:09:13.413Z,94814.84
2023-04-20T13:11:41.523Z,94817.50
2023-04-20T13:14:10.694Z,94817.03
2023-04-20T13:16:38.880Z,94798.97
2023-04-20T13:19:06.942Z,94800.28
2023-04-20T13:21:36.623Z,94800.69
2023-04-20T13:24:05.215Z,94795.13
2023-04-20T13:26:34.018Z,94794.94
2023-04-20T13:29:02.377Z,94804.06
2023-04-20T13:31:32.223Z,94797.66
2023-04-20T13:34:00.679Z,94798.91
2023-04-20T13:36:29.773Z,94802.34
2023-04-20T13:39:00.211Z,94803.84
2023-04-20T13:41:29.097Z,94800.53
2023-04-20T13:43:59.394Z,94804.22
2023-04-20T13:46:29.809Z,94817.44
2023-04-20T13:48:58.753Z,94812.66
2023-04-20T13:51:28.164Z,94803.78
2023-04-20T13:53:56.589Z,94782.72
2023-04-20T13:56:26.899Z,94792.66
2023-04-20T13:58:55.393Z,94799.25
2023-04-20T14:01:27.109Z,94800.06
2023-04-20T14:03:56.762Z,94784.22
2023-04-20T14:06:25.237Z,94786.72
2023-04-20T14:08:54.303Z,94792.56
2023-04-20T14:11:22.416Z,94797.19
2023-04-20T14:13:51.977Z,94788.22
2023-04-20T14:16:20.224Z,94792.63
2023-04-20T14:18:48.673Z,94792.28
2023-04-20T14:21:16.767Z,94786.31
2023-04-20T14:23:45.028Z,94783.25
2023-04-20T14:26:13.451Z,94792.84
2023-04-20T14:28:41.609Z,94784.94
2023-04-20T14:31:11.388Z,94787.91
2023-04-20T14:33:41.531Z,94787.25
2023-04-20T14:36:10.994Z,94779.38
2023-04-20T14:38:39.436Z,94780.56
2023-04-20T14:41:08.208Z,94785.25
2023-04-20T14:43:38.274Z,94777.97
2023-04-20T14:46:07.217Z,94782.50
2023-04-20T14:48:38.038Z,94783.84
2023-04-20T14:51:06.336Z,94781.31
2023-04-20T14:53:34.401Z,94778.66
2023-04-20T14:56:03.166Z,94769.53
2023-04-20T14:58:31.615Z,94768.47
2023-04-20T15:00:59.919Z,94765.44
2023-04-20T15:03:28.290Z,94768.97
2023-04-20T15:06:01.904Z,94773.28
2023-04-20T15:08:30.425Z,94776.03
2023-04-20T15:10:58.824Z,94773.28
2023-04-20T15:13:27.852Z,94769.50
2023-04-20T15:15:56.349Z,94771.16
2023-04-20T15:18:24.599Z,94761.00
2023-04-20T15:20:54.460Z,94764.75
2023-04-20T15:23:24.502Z,94757.56
2023-04-20T15:25:53.773Z,94760.63
2023-04-20T15:28:24.068Z,94772.81
2023-04-20T15:30:52.792Z,94778.16
2023-04-20T15:33:21.924Z,94779.75
2023-04-20T15:35:50.669Z,94786.13
2023-04-20T15:38:18.901Z,94786.44
2023-04-20T15:40:48.869Z,94788.38
2023-04-20T15:43:17.393Z,94783.47
2023-04-20T15:45:45.518Z,94785.16
2023-04-20T15:48:14.008Z,94773.88
2023-04-20T15:50:42.603Z,94771.84
2023-04-20T15:53:11.621Z,94772.72
2023-04-20T15:55:40.302Z,94774.09
2023-04-20T15:58:10.200Z,94763.69
2023-04-20T16:00:38.511Z,94765.47
2023-04-20T16:03:06.968Z,94753.50
2023-04-20T16:05:54.056Z,94751.78
2023-04-20T16:08:41.728Z,94758.13
2023-04-20T16:11:10.124Z,94760.97
2023-04-20T16:13:39.959Z,94758.91
2023-04-20T16:16:09.539Z,94762.53
2023-04-20T16:18:37.802Z,94766.25
2023-04-20T16:21:07.154Z,94763.81
2023-04-20T16:23:35.807Z,94757.88
2023-04-20T16:26:04.457Z,94764.38
2023-04-20T16:28:35.846Z,94758.47
2023-04-20T16:31:06.217Z,94761.00
2023-04-20T16:33:36.299Z,94759.16
2023-04-20T16:36:04.907Z,94757.13
2023-04-20T16:38:37.228Z,94765.25
2023-04-20T16:41:05.461Z,94771.72
2023-04-20T16:43:33.704Z,94778.00
2023-04-20T16:46:02.440Z,94776.97
2023-04-20T16:48:33.228Z,94781.97
2023-04-20T16:51:01.540Z,94785.41
2023-04-20T16:53:30.959Z,94787.03
2023-04-20T16:55:59.511Z,94788.59
2023-04-20T16:58:28.618Z,94789.41
2023-04-20T17:00:57.097Z,94793.84
2023-04-20T17:03:27.098Z,94792.56
2023-04-20T17:05:58.793Z,94791.78
2023-04-20T17:08:29.285Z,94782.78
2023-04-20T17:10:57.860Z,94793.50
2023-04-20T17:13:26.548Z,94799.91
2023-04-20T17:15:54.920Z,94800.94
2023-04-20T17:18:26.416Z,94805.28
2023-04-20T17:21:01.438Z,94803.94
2023-04-20T17:23:29.899Z,94799.34
2023-04-20T17:25:58.815Z,94802.03
2023-04-20T17:28:27.062Z,94795.84
2023-04-20T17:30:55.070Z,94805.09
2023-04-20T17:33:25.390Z,94799.84
2023-04-20T17:35:55.227Z,94797.53
2023-04-20T17:38:25.318Z,94804.84
2023-04-20T17:40:53.624Z,94809.84
2023-04-20T17:43:22.172Z,94813.28
2023-04-20T17:45:54.781Z,94813.81
2023-04-20T17:48:23.215Z,94817.59
2023-04-20T17:50:52.348Z,94815.31
2023-04-20T17:53:20.969Z,94822.06
2023-04-20T17:55:51.024Z,94821.69
2023-04-20T17:58:19.327Z,94828.91
2023-04-20T18:00:48.250Z,94838.06
2023-04-20T18:03:20.016Z,94846.41
2023-04-20T18:05:48.434Z,94850.28
2023-04-20T18:08:17.772Z,94857.06
2023-04-20T18:10:46.889Z,94864.56
2023-04-20T18:13:24.720Z,94870.06
2023-04-20T18:15:55.381Z,94876.00
2023-04-20T18:18:25.233Z,94875.69
2023-04-20T18:20:53.747Z,94878.50
2023-04-20T18:23:23.108Z,94866.31
2023-04-20T18:25:53.495Z,94868.63
2023-04-20T18:28:24.773Z,94871.72
2023-04-20T18:30:56.421Z,94868.53
2023-04-20T18:33:27.747Z,94869.00
2023-04-20T18:35:56.270Z,94879.72
2023-04-20T18:38:24.730Z,94892.00
2023-04-20T18:40:53.386Z,94890.66
2023-04-20T18:43:23.970Z,94905.34
2023-04-20T18:45:52.669Z,94903.75
2023-04-20T18:48:22.002Z,94895.34
2023-04-20T18:50:51.143Z,94900.00
2023-04-20T18:53:19.357Z,94903.19
2023-04-20T18:55:47.756Z,94913.47
2023-04-20T18:58:16.649Z,94900.81
2023-04-20T19:00:49.039Z,94898.41
2023-04-20T19:03:17.982Z,94906.50
2023-04-20T19:05:47.205Z,94916.75
2023-04-20T19:08:15.581Z,94911.75
2023-04-20T19:10:43.954Z,94914.38
2023-04-20T19:13:12.575Z,94924.28
2023-04-20T19:15:41.489Z,94921.91
2023-04-20T19:18:12.583Z,94923.25
2023-04-20T19:20:40.732Z,94923.25
2023-04-20T19:23:08.976Z,94935.56
2023-04-20T19:25:38.159Z,94937.63
2023-04-20T19:28:08.289Z,94943.69
2023-04-20T19:30:37.707Z,94946.28
2023-04-20T19:33:06.275Z,94949.13
2023-04-20T19:35:36.962Z,94956.44
2023-04-20T19:38:05.368Z,94952.69
2023-04-20T19:40:37.013Z,94956.53
2023-04-20T19:43:06.266Z,94963.38
2023-04-20T19:45:35.871Z,94961.78
2023-04-20T19:48:07.354Z,94966.47
2023-04-20T19:50:40.912Z,94962.00
2023-04-20T19:53:10.339Z,94963.03
2023-04-20T19:55:39.903Z,94958.03
2023-04-20T19:58:10.682Z,94960.66
2023-04-20T20:00:40.895Z,94963.72
2023-04-20T20:03:12.394Z,94969.75
2023-04-20T20:05:44.108Z,94971.56
2023-04-20T20:08:12.574Z,94968.97
2023-04-20T20:10:42.200Z,94968.97
2023-04-20T20:13:11.209Z,94973.88
2023-04-20T20:15:39.998Z,94969.63
2023-04-20T20:18:12.901Z,94963.38
2023-04-20T20:20:43.353Z,94971.69
2023-04-20T20:23:12.922Z,94964.06
2023-04-20T20:25:42.418Z,94967.47
2023-04-20T20:28:11.021Z,94959.63
2023-04-20T20:30:41.620Z,94956.63
2023-04-20T20:33:09.772Z,94963.69
2023-04-20T20:35:38.704Z,94973.38
2023-04-20T20:38:08.950Z,94979.66
2023-04-20T20:40:39.683Z,94978.06
2023-04-20T20:43:08.840Z,94973.84
2023-04-20T20:45:39.856Z,94978.06
2023-04-20T20:48:08.899Z,94983.31
2023-04-20T20:50:39.536Z,94972.81
2023-04-20T20:53:10.269Z,94977.25
2023-04-20T20:55:38.747Z,94978.28
2023-04-20T20:58:07.298Z,94976.69
2023-04-20T21:00:37.151Z,94985.13
2023-04-20T21:03:05.846Z,94986.72
2023-04-20T21:05:35.914Z,94994.56
2023-04-20T21:08:04.469Z,94990.94
2023-04-20T21:10:34.571Z,94998.00
2023-04-20T21:13:04.050Z,94993.78
2023-04-20T21:15:32.394Z,94994.00
2023-04-20T21:18:00.744Z,94987.38
2023-04-20T21:20:29.420Z,94978.16
2023-04-20T21:22:57.569Z,94974.75
2023-04-20T21:25:27.309Z,94979.41
2023-04-20T21:27:57.358Z,94985.22
2023-04-20T21:30:25.548Z,94981.56
2023-04-20T21:33:01.374Z,94974.50
2023-04-20T21:35:29.726Z,94974.19
2023-04-20T21:37:59.264Z,94979.75
2023-04-20T21:40:27.749Z,94989.44
2023-04-20T21:42:57.647Z,94978.97
2023-04-20T21:45:25.794Z,94977.94
2023-04-20T21:47:55.500Z,94977.59
2023-04-20T21:50:27.289Z,94974.97
2023-04-20T21:52:56.146Z,94973.72
2023-04-20T21:55:24.565Z,94972.81
2023-04-20T21:57:53.038Z,94973.06
2023-04-20T22:00:23.483Z,94971.91
2023-04-20T22:02:51.870Z,94976.00
2023-04-20T22:05:20.567Z,94981.44
2023-04-20T22:07:48.751Z,94977.00
2023-04-20T22:10:17.083Z,94974.97
2023-04-20T22:12:45.575Z,94972.00
2023-04-20T22:15:15.545Z,94969.06
2023-04-20T22:17:47.723Z,94960.63
2023-04-20T22:20:19.326Z,94969.28
2023-04-20T22:22:48.416Z,94978.63
2023-04-20T22:25:17.001Z,94978.03
2023-04-20T22:27:45.727Z,94977.94
2023-04-20T22:30:15.286Z,94976.53
2023-04-20T22:32:43.875Z,94972.91
2023-04-20T22:35:15.907Z,94975.09
2023-04-20T22:37:44.386Z,94964.25
2023-04-20T22:40:14.159Z,94966.88
2023-04-20T22:42:42.572Z,94966.31
2023-04-20T22:45:12.069Z,94974.16
2023-04-20T22:47:41.775Z,94966.72
2023-04-20T22:50:12.156Z,94956.25
2023-04-20T22:52:44.351Z,94963.91
2023-04-20T22:55:12.769Z,94962.09
2023-04-20T22:57:41.317Z,94959.47
2023-04-20T23:00:13.671Z,94962.75
2023-04-20T23:02:42.843Z,94958.78
2023-04-20T23:05:12.047Z,94965.84
2023-04-20T23:07:41.600Z,94961.72
2023-04-20T23:10:12.217Z,94961.00
2023-04-20T23:12:40.746Z,94965.13
2023-04-20T23:15:10.131Z,94971.50
2023-04-20T23:17:38.913Z,94967.28
2023-04-20T23:20:10.460Z,94965.19
2023-04-20T23:22:38.685Z,94967.41
2023-04-20T23:25:09.788Z,94966.31
2023-04-20T23:27:38.177Z,94969.06
2023-04-20T23:30:07.789Z,94969.66
2023-04-20T23:32:37.177Z,94966.97
2023-04-20T23:35:06.595Z,94963.88
2023-04-20T23:37:34.756Z,94964.44
2023-04-20T23:40:06.717Z,94963.66
2023-04-20T23:42:37.449Z,94962.97
2023-04-20T23:45:06.664Z,94964.94
2023-04-20T23:47:36.996Z,94957.75
2023-04-20T23:50:06.265Z,94959.81
2023-04-20T23:52:34.841Z,94950.13
2023-04-20T23:55:04.011Z,94949.53
2023-04-20T23:57:32.312Z,94949.28
